Time;durP1;ratioP1;P1;durP2;ratioP2;P2;SDS_P1;SDS_P2;PMS_P1;PMS_P2;Temp;Humidity;BMP_temperature;BMP_pressure;BME280_temperature;BME280_humidity;BME280_pressure;Samples;Min_cycle;Max_cycle;Signal;HPM_P1;HPM_P2
2022/08/12 00:44:23;;;;;;;1.07;0.97;;;;;;;22.60;40.41;101853.38;4954485;28;97291;-48
2022/08/12 00:46:56;;;;;;;1.27;0.90;;;;;;;22.56;40.77;101862.13;4956520;28;97155;-48
2022/08/12 00:49:22;;;;;;;0.90;0.90;;;;;;;22.52;40.61;101860.94;4956485;28;96842;-48
2022/08/12 00:52:06;;;;;;;1.37;0.90;;;;;;;22.49;40.84;101862.03;4958067;28;97045;-48
2022/08/12 00:54:42;;;;;;;1.30;1.03;;;;;;;22.45;41.42;101861.63;4958411;28;97156;-48
2022/08/12 00:57:12;;;;;;;0.97;0.80;;;;;;;22.41;41.13;101861.22;4957333;28;97322;-48
2022/08/12 00:59:47;;;;;;;2.03;0.90;;;;;;;22.36;41.78;101862.84;4963262;28;96902;-48
2022/08/12 01:02:21;;;;;;;1.00;0.90;;;;;;;22.33;41.12;101867.50;4960664;28;97419;-48
2022/08/12 01:13:05;;;;;;;1.97;1.20;;;;;;;22.13;41.36;101857.00;4954712;28;97435;-48
2022/08/12 01:15:30;;;;;;;3.63;1.30;;;;;;;22.09;41.50;101862.19;4956736;28;97354;-48
2022/08/12 01:17:56;;;;;;;1.43;0.77;;;;;;;22.04;41.54;101862.34;4957799;28;97185;-48
2022/08/12 01:20:35;;;;;;;3.10;1.30;;;;;;;22.01;42.53;101858.56;4955346;28;97480;-48
2022/08/12 01:23:25;;;;;;;13.57;1.53;;;;;;;21.95;42.88;101863.50;4958232;28;97096;-48
2022/08/12 01:25:53;;;;;;;0.87;0.87;;;;;;;21.91;41.77;101859.56;4956352;28;103044;-48
2022/08/12 01:28:22;;;;;;;2.50;0.93;;;;;;;21.89;41.92;101862.13;4957458;28;97105;-48
2022/08/12 01:30:49;;;;;;;1.43;1.37;;;;;;;21.88;41.99;101864.19;4960893;28;97162;-49
2022/08/12 01:33:17;;;;;;;1.30;1.20;;;;;;;21.85;42.12;101862.47;4956745;28;96853;-47
2022/08/12 01:35:48;;;;;;;1.40;1.10;;;;;;;21.84;42.28;101866.56;4955730;28;97060;-48
2022/08/12 01:38:18;;;;;;;1.10;1.00;;;;;;;21.78;42.49;101857.50;4961241;28;97017;-48
2022/08/12 01:40:46;;;;;;;0.97;0.80;;;;;;;21.73;42.33;101861.19;4959870;28;97371;-48
2022/08/12 01:43:21;;;;;;;1.30;1.20;;;;;;;21.71;42.64;101854.63;4957496;28;97194;-48
2022/08/12 01:46:10;;;;;;;2.17;1.10;;;;;;;21.67;42.86;101855.69;4957328;28;97137;-48
2022/08/12 01:48:58;;;;;;;2.20;1.20;;;;;;;21.58;43.63;101853.31;4954129;28;100031;-48
2022/08/12 01:51:39;;;;;;;0.87;0.87;;;;;;;21.49;42.55;101855.81;4957119;28;96867;-48
2022/08/12 01:54:09;;;;;;;1.30;1.00;;;;;;;21.46;42.77;101856.91;4942945;28;97473;-48
2022/08/12 01:56:48;;;;;;;1.17;1.07;;;;;;;21.42;43.58;101848.06;4949978;28;97541;-48
2022/08/12 01:59:45;;;;;;;2.17;1.40;;;;;;;21.37;43.67;101846.88;4950089;28;100429;-48
2022/08/12 02:02:20;;;;;;;1.87;1.10;;;;;;;21.34;43.14;101847.22;4942522;28;96699;-48
2022/08/12 02:11:41;;;;;;;2.63;1.40;;;;;;;21.22;43.11;101849.47;4875051;28;100067;-48
2022/08/12 02:14:27;;;;;;;1.20;1.10;;;;;;;21.20;43.68;101845.72;4946171;28;96890;-48
2022/08/12 02:16:57;;;;;;;1.47;1.00;;;;;;;21.16;43.37;101851.63;4945832;28;96958;-48
2022/08/12 02:19:37;;;;;;;1.40;1.30;;;;;;;21.12;43.87;101853.97;4940574;28;97311;-47
2022/08/12 02:22:27;;;;;;;1.33;1.00;;;;;;;21.05;44.37;101845.47;4950936;28;101590;-47
2022/08/12 02:25:00;;;;;;;0.90;0.90;;;;;;;21.03;43.78;101853.63;4946547;28;96782;-48
2022/08/12 02:27:26;;;;;;;1.40;1.30;;;;;;;20.98;43.40;101858.03;4949059;28;97510;-48
2022/08/12 02:29:52;;;;;;;2.50;1.20;;;;;;;20.95;43.71;101852.78;4950387;28;97642;-48
2022/08/12 02:32:17;;;;;;;1.10;1.00;;;;;;;20.91;43.74;101859.44;4944638;28;97108;-48
2022/08/12 02:34:44;;;;;;;1.37;1.00;;;;;;;20.88;43.82;101868.16;4948904;28;97030;-48
2022/08/12 02:37:14;;;;;;;1.33;1.17;;;;;;;20.85;43.95;101855.97;4951605;28;97205;-48
2022/08/12 02:39:46;;;;;;;1.50;1.23;;;;;;;20.83;44.25;101855.00;4948878;28;98564;-48
2022/08/12 02:42:14;;;;;;;0.90;0.90;;;;;;;20.77;44.17;101857.88;4944709;28;100576;-48
2022/08/12 02:44:43;;;;;;;1.53;1.30;;;;;;;20.73;44.06;101854.66;4943025;28;97194;-48
2022/08/12 02:47:10;;;;;;;1.50;1.40;;;;;;;20.71;44.14;101857.22;4944962;28;97217;-48
2022/08/12 02:49:43;;;;;;;1.43;1.33;;;;;;;20.64;44.63;101855.06;4944647;28;96793;-48
2022/08/12 02:52:10;;;;;;;3.70;1.33;;;;;;;20.57;44.29;101852.91;4950674;28;97296;-49
2022/08/12 02:54:37;;;;;;;2.10;1.27;;;;;;;20.53;44.50;101846.13;4949514;28;97405;-48
2022/08/12 02:57:04;;;;;;;2.07;1.37;;;;;;;20.49;44.48;101840.06;4946693;28;97425;-48
2022/08/12 02:59:33;;;;;;;2.07;1.00;;;;;;;20.46;44.67;101847.50;4949101;28;98080;-48
2022/08/12 03:02:03;;;;;;;1.20;1.20;;;;;;;20.43;44.84;101851.34;4942111;28;96800;-48
2022/08/12 03:04:37;;;;;;;1.23;1.10;;;;;;;20.36;45.43;101842.81;4953798;28;96687;-48
2022/08/12 03:07:15;;;;;;;1.00;0.90;;;;;;;20.31;45.64;101846.47;4944340;28;97002;-48
2022/08/12 03:09:51;;;;;;;1.50;1.40;;;;;;;20.25;45.58;101848.59;4948020;28;97451;-48
2022/08/12 03:12:18;;;;;;;1.27;1.17;;;;;;;20.20;44.84;101847.34;4946699;28;102658;-48
2022/08/12 03:14:43;;;;;;;2.10;1.37;;;;;;;20.18;44.94;101845.06;4947116;28;96823;-48
2022/08/12 03:17:21;;;;;;;1.33;1.10;;;;;;;20.17;45.88;101842.81;4958047;28;97185;-48
2022/08/12 03:19:49;;;;;;;1.40;1.30;;;;;;;20.16;45.16;101847.66;4948739;28;97542;-48
2022/08/12 03:22:17;;;;;;;2.50;1.20;;;;;;;20.14;45.03;101853.00;4958216;28;97320;-48
2022/08/12 03:24:44;;;;;;;1.80;0.93;;;;;;;20.11;45.35;101840.13;4953524;28;97154;-48
2022/08/12 03:27:12;;;;;;;1.63;1.53;;;;;;;20.07;45.24;101852.88;4955176;28;96733;-48
2022/08/12 03:29:40;;;;;;;2.50;1.13;;;;;;;20.02;45.26;101848.88;4952510;28;97426;-48
2022/08/12 03:32:05;;;;;;;1.47;1.20;;;;;;;19.99;45.31;101841.56;4955131;28;96919;-48
2022/08/12 03:34:34;;;;;;;1.53;1.43;;;;;;;19.96;45.61;101839.81;4959459;28;96856;-48
2022/08/12 03:37:01;;;;;;;2.60;1.50;;;;;;;19.96;45.54;101841.88;4957190;28;97363;-48
2022/08/12 03:42:14;;;;;;;1.93;1.10;;;;;;;19.98;45.76;101839.28;4958403;28;97190;-48
2022/08/12 04:01:56;;;;;;;1.20;1.20;;;;;;;19.84;45.85;101841.25;4955885;28;97169;-48
2022/08/12 04:04:43;;;;;;;1.50;1.40;;;;;;;19.83;47.05;101841.78;4955822;28;97374;-48
2022/08/12 04:07:10;;;;;;;1.30;1.30;;;;;;;19.81;46.01;101833.19;4953352;28;97373;-49
2022/08/12 04:09:38;;;;;;;1.00;1.00;;;;;;;19.80;46.20;101840.81;4954729;28;97386;-48
2022/08/12 04:14:49;;;;;;;1.47;1.37;;;;;;;19.74;46.29;101833.78;4953273;28;101444;-48
2022/08/12 04:17:15;;;;;;;1.60;1.50;;;;;;;19.74;46.22;101839.38;4955668;28;96941;-48
2022/08/12 04:19:41;;;;;;;1.13;1.13;;;;;;;19.72;46.16;101842.69;4955208;28;96956;-48
2022/08/12 04:22:08;;;;;;;2.10;2.00;;;;;;;19.69;46.33;101843.75;4957153;28;99392;-48
2022/08/12 04:24:34;;;;;;;1.50;1.40;;;;;;;19.68;46.13;101835.91;4955803;28;96969;-48
2022/08/12 04:27:01;;;;;;;1.60;1.50;;;;;;;19.66;46.27;101841.25;4961502;28;96728;-48
2022/08/12 04:29:26;;;;;;;1.53;1.43;;;;;;;19.64;46.34;101841.00;4959732;28;97091;-47
2022/08/12 04:31:54;;;;;;;1.40;1.30;;;;;;;19.62;46.27;101840.78;4957941;28;97238;-48
2022/08/12 04:34:24;;;;;;;1.70;1.50;;;;;;;19.58;46.28;101831.94;4960451;28;97115;-48
2022/08/12 04:36:50;;;;;;;1.33;1.23;;;;;;;19.57;46.59;101836.03;4956040;28;97379;-48
2022/08/12 04:39:17;;;;;;;1.40;1.40;;;;;;;19.53;46.70;101827.22;4956175;28;96888;-48
2022/08/12 04:41:43;;;;;;;2.70;1.30;;;;;;;19.52;46.44;101839.66;4956135;28;97082;-48
2022/08/12 04:44:08;;;;;;;1.80;1.70;;;;;;;19.49;46.50;101841.44;4962095;28;96972;-48
2022/08/12 04:46:34;;;;;;;3.17;1.50;;;;;;;19.48;46.65;101842.75;4954893;28;97115;-48
2022/08/12 04:49:01;;;;;;;1.80;1.70;;;;;;;19.48;46.68;101850.38;4961124;28;97376;-48
2022/08/12 04:51:27;;;;;;;1.40;1.30;;;;;;;19.46;46.73;101844.56;4960314;28;100140;-47
2022/08/12 04:53:53;;;;;;;1.70;1.60;;;;;;;19.47;46.71;101848.84;4957191;28;96960;-48
2022/08/12 04:56:18;;;;;;;1.90;1.20;;;;;;;19.48;46.74;101851.13;4959770;28;96747;-48
2022/08/12 04:58:44;;;;;;;1.33;1.23;;;;;;;19.47;46.87;101848.84;4960020;28;97488;-48
2022/08/12 05:01:10;;;;;;;1.73;1.10;;;;;;;19.43;46.73;101844.31;4958453;28;97575;-48
2022/08/12 05:03:36;;;;;;;1.70;1.60;;;;;;;19.42;46.77;101853.97;4955242;28;97068;-48
2022/08/12 05:06:03;;;;;;;1.40;1.30;;;;;;;19.42;47.00;101848.38;4958774;28;96908;-48
2022/08/12 05:08:29;;;;;;;4.13;1.40;;;;;;;19.42;46.94;101856.00;4963008;28;97648;-48
2022/08/12 05:10:56;;;;;;;2.50;1.77;;;;;;;19.44;47.09;101854.19;4960683;28;98875;-47
2022/08/12 05:13:28;;;;;;;1.47;1.30;;;;;;;19.46;47.04;101856.47;4959452;28;97293;-47
2022/08/12 05:15:53;;;;;;;1.40;1.30;;;;;;;19.46;47.21;101855.72;4962983;28;97063;-48
2022/08/12 05:18:20;;;;;;;4.70;1.37;;;;;;;19.48;47.13;101855.94;4962649;28;96947;-48
2022/08/12 05:20:47;;;;;;;1.40;1.30;;;;;;;19.51;47.20;101860.47;4955079;28;97661;-48
2022/08/12 05:23:17;;;;;;;2.77;1.53;;;;;;;19.53;47.53;101855.13;4957658;28;97232;-48
2022/08/12 05:25:45;;;;;;;2.13;1.90;;;;;;;19.54;47.26;101856.63;4958524;28;97245;-47
2022/08/12 05:28:12;;;;;;;1.60;1.50;;;;;;;19.55;47.16;101852.56;4959986;28;96987;-47
2022/08/12 05:30:40;;;;;;;1.80;1.67;;;;;;;19.56;47.30;101860.41;4953803;28;97465;-48
2022/08/12 05:33:05;;;;;;;1.60;1.50;;;;;;;19.59;47.31;101853.03;4961415;28;97215;-47
2022/08/12 05:35:38;;;;;;;1.63;1.53;;;;;;;19.64;47.68;101854.97;4958184;28;96978;-48
2022/08/12 05:41:17;;;;;;;1.60;1.50;;;;;;;19.67;47.21;101862.31;4956813;28;101346;-48
2022/08/12 05:43:45;;;;;;;1.27;1.27;;;;;;;19.70;47.35;101859.19;4959441;28;97317;-48
2022/08/12 05:46:10;;;;;;;1.40;1.30;;;;;;;19.75;47.25;101868.78;4956077;28;97259;-50
2022/08/12 05:48:35;;;;;;;3.03;1.60;;;;;;;19.80;47.38;101862.38;4961376;28;97083;-48
2022/08/12 05:51:00;;;;;;;2.27;1.53;;;;;;;19.83;47.42;101870.47;4955928;28;115041;-47
2022/08/12 05:53:26;;;;;;;1.60;1.57;;;;;;;19.86;47.46;101877.03;4958997;28;97078;-47
2022/08/12 05:55:52;;;;;;;1.83;1.70;;;;;;;19.91;47.33;101879.00;4955050;28;97328;-48
2022/08/12 05:58:19;;;;;;;1.80;1.70;;;;;;;19.96;47.20;101867.75;4960190;28;98018;-48
2022/08/12 06:00:44;;;;;;;1.63;1.33;;;;;;;19.99;47.47;101865.94;4952768;28;97182;-47
2022/08/12 06:03:10;;;;;;;2.03;1.50;;;;;;;20.07;47.32;101870.38;4957427;28;97258;-47
2022/08/12 06:05:37;;;;;;;1.80;1.53;;;;;;;20.15;47.46;101873.34;4958424;28;97236;-48
2022/08/12 06:08:05;;;;;;;2.97;1.60;;;;;;;20.24;47.47;101880.59;4957573;28;97149;-47
2022/08/12 06:10:34;;;;;;;1.83;1.70;;;;;;;20.30;47.47;101879.25;4958272;28;96878;-48
2022/08/12 06:13:01;;;;;;;2.03;1.83;;;;;;;20.39;47.33;101878.09;4957510;28;97325;-48
2022/08/12 06:15:27;;;;;;;2.03;1.93;;;;;;;20.46;47.45;101875.44;4962245;28;97249;-48
2022/08/12 06:17:53;;;;;;;1.87;1.77;;;;;;;20.53;47.23;101874.81;4956218;28;97124;-48
2022/08/12 06:20:18;;;;;;;2.37;1.60;;;;;;;20.63;47.31;101884.31;4959883;28;98074;-48
2022/08/12 06:22:46;;;;;;;1.87;1.40;;;;;;;20.72;47.29;101883.94;4956128;28;97162;-48
2022/08/12 06:25:17;;;;;;;2.70;1.30;;;;;;;20.82;47.20;101889.84;4960708;28;97097;-48
2022/08/12 06:27:47;;;;;;;1.67;1.57;;;;;;;20.93;47.49;101890.41;4958301;28;97686;-48
2022/08/12 06:30:16;;;;;;;1.50;1.40;;;;;;;21.03;46.80;101890.81;4959636;28;97724;-47
2022/08/12 06:32:42;;;;;;;3.50;1.87;;;;;;;21.14;46.94;101889.84;4956693;28;100169;-48
2022/08/12 06:35:09;;;;;;;1.80;1.70;;;;;;;21.26;46.82;101888.34;4954889;28;97415;-47
2022/08/12 06:37:43;;;;;;;4.20;1.40;;;;;;;21.37;46.93;101882.53;4956252;28;97351;-48
2022/08/12 06:40:09;;;;;;;1.50;1.40;;;;;;;21.48;46.30;101882.31;4957126;28;97345;-48
2022/08/12 06:42:48;;;;;;;1.63;1.53;;;;;;;21.60;46.26;101884.34;4957613;28;97239;-48
2022/08/12 06:45:14;;;;;;;4.43;1.60;;;;;;;21.71;46.15;101880.56;4956785;28;97434;-47
2022/08/12 06:47:40;;;;;;;1.50;1.40;;;;;;;21.79;45.83;101878.63;4956343;28;96883;-48
2022/08/12 06:50:06;;;;;;;1.53;1.43;;;;;;;21.89;45.73;101885.31;4959185;28;101736;-48
2022/08/12 06:52:32;;;;;;;1.63;1.53;;;;;;;21.99;45.73;101885.63;4957062;28;96677;-47
2022/08/12 06:54:58;;;;;;;1.37;1.23;;;;;;;22.11;45.38;101878.47;4956969;28;97428;-48
2022/08/12 06:57:28;;;;;;;1.60;1.50;;;;;;;22.23;45.01;101877.69;4956819;28;97201;-48
2022/08/12 06:59:54;;;;;;;1.63;1.53;;;;;;;22.37;44.92;101879.13;4959162;28;97224;-47
2022/08/12 07:02:21;;;;;;;1.80;1.60;;;;;;;22.51;44.91;101879.81;4959245;28;97248;-47
2022/08/12 07:04:49;;;;;;;1.40;1.33;;;;;;;22.64;44.53;101887.44;4958798;28;97243;-47
2022/08/12 07:07:14;;;;;;;4.83;1.90;;;;;;;22.75;44.48;101878.75;4957903;28;97280;-47
2022/08/12 07:09:41;;;;;;;1.70;1.60;;;;;;;22.89;43.95;101885.81;4955829;28;97703;-47
2022/08/12 07:12:15;;;;;;;1.70;1.60;;;;;;;23.01;43.89;101887.00;4956175;28;97513;-47
2022/08/12 07:14:40;;;;;;;1.60;1.50;;;;;;;23.15;43.65;101884.88;4958184;28;96890;-46
2022/08/12 07:17:06;;;;;;;3.13;1.97;;;;;;;23.24;43.48;101881.56;4954426;28;97385;-48
2022/08/12 07:19:32;;;;;;;2.03;1.83;;;;;;;23.36;43.48;101877.91;4958650;28;97615;-49
2022/08/12 07:22:05;;;;;;;1.57;1.47;;;;;;;23.50;42.96;101887.00;4957853;28;97304;-47
2022/08/12 07:24:31;;;;;;;1.73;1.40;;;;;;;23.63;43.07;101893.22;4958377;28;97177;-48
2022/08/12 07:26:57;;;;;;;1.40;1.27;;;;;;;23.75;42.75;101891.59;4954904;28;97683;-48
2022/08/12 07:29:24;;;;;;;1.33;1.27;;;;;;;23.86;42.37;101893.34;4953525;28;99356;-48
2022/08/12 07:31:50;;;;;;;1.47;1.20;;;;;;;23.97;42.16;101895.06;4954782;28;102796;-48
2022/08/12 07:34:16;;;;;;;1.70;1.60;;;;;;;24.08;41.96;101895.50;4955102;28;97203;-48
2022/08/12 07:36:41;;;;;;;2.20;1.77;;;;;;;24.22;42.13;101898.94;4956074;28;97005;-52
2022/08/12 07:39:06;;;;;;;1.60;1.50;;;;;;;24.34;41.60;101900.06;4957351;28;97576;-48
2022/08/12 07:41:32;;;;;;;2.70;1.20;;;;;;;24.47;41.51;101897.09;4955814;28;97490;-48
2022/08/12 07:44:06;;;;;;;1.47;1.37;;;;;;;24.62;40.86;101902.75;4953212;28;96726;-47
2022/08/12 07:46:42;;;;;;;1.60;1.50;;;;;;;24.78;40.74;101897.91;4954227;28;96937;-48
2022/08/12 07:49:13;;;;;;;1.50;1.37;;;;;;;24.93;40.16;101901.47;4955930;28;98658;-48
2022/08/12 07:51:41;;;;;;;1.57;1.40;;;;;;;25.04;40.39;101901.09;4956109;28;97222;-48
2022/08/12 07:54:08;;;;;;;1.70;1.60;;;;;;;25.16;40.31;101904.28;4954839;28;96906;-48
2022/08/12 07:56:35;;;;;;;1.13;1.13;;;;;;;25.29;39.71;101899.19;4957006;28;97328;-48
2022/08/12 07:59:01;;;;;;;1.33;1.23;;;;;;;25.43;39.42;101907.44;4957187;28;99511;-49
2022/08/12 08:01:27;;;;;;;2.47;1.93;;;;;;;25.56;39.34;101908.00;4959988;28;97164;-48
2022/08/12 08:06:41;;;;;;;1.60;1.40;;;;;;;25.83;39.09;101902.63;4958503;28;96787;-49
2022/08/12 08:09:09;;;;;;;1.30;1.20;;;;;;;25.96;38.92;101897.50;4956989;28;97244;-48
2022/08/12 08:14:19;;;;;;;1.67;1.20;;;;;;;26.26;38.60;101898.69;4959135;28;97552;-48
2022/08/12 08:16:47;;;;;;;1.30;1.20;;;;;;;26.40;38.15;101903.50;4962549;28;97424;-48
2022/08/12 08:19:22;;;;;;;1.67;1.07;;;;;;;26.52;37.74;101896.06;4961193;28;101940;-48
2022/08/12 08:21:53;;;;;;;1.97;1.53;;;;;;;26.67;37.52;101898.03;4959193;28;101869;-48
2022/08/12 08:24:19;;;;;;;1.80;1.27;;;;;;;26.83;37.21;101896.63;4958550;28;97418;-48
2022/08/12 08:26:51;;;;;;;1.10;1.00;;;;;;;26.97;37.20;101897.06;4961576;28;97323;-48
2022/08/12 08:29:17;;;;;;;1.37;1.27;;;;;;;27.12;37.12;101892.03;4961929;28;97433;-48
2022/08/12 08:31:45;;;;;;;1.60;1.33;;;;;;;27.26;36.81;101887.53;4959570;28;97111;-48
2022/08/12 08:34:15;;;;;;;1.93;1.37;;;;;;;27.41;36.36;101892.34;4959458;28;97247;-48
2022/08/12 08:36:41;;;;;;;2.40;1.30;;;;;;;27.55;36.00;101887.81;4960562;28;97462;-48
2022/08/12 08:39:07;;;;;;;1.30;1.20;;;;;;;27.72;35.67;101879.31;4962587;28;97854;-49
2022/08/12 08:44:16;;;;;;;1.83;1.23;;;;;;;28.08;35.63;101892.84;4958213;28;97006;-48
2022/08/12 08:46:45;;;;;;;1.53;1.43;;;;;;;28.24;35.04;101879.97;4960950;28;97040;-48
2022/08/12 08:49:11;;;;;;;1.70;1.50;;;;;;;28.42;35.25;101887.06;4959321;28;101291;-48
2022/08/12 08:51:37;;;;;;;1.50;1.40;;;;;;;28.60;35.00;101880.00;4957467;28;97591;-48
2022/08/12 08:54:05;;;;;;;1.63;1.13;;;;;;;28.77;34.48;101879.91;4961660;28;96635;-48
2022/08/12 08:56:31;;;;;;;1.23;1.13;;;;;;;28.90;33.76;101887.25;4957090;28;96875;-48
2022/08/12 08:58:57;;;;;;;1.30;1.20;;;;;;;29.08;34.30;101887.88;4962682;28;98478;-48
2022/08/12 09:01:22;;;;;;;1.30;1.20;;;;;;;29.25;33.85;101891.38;4964348;28;97217;-48
2022/08/12 09:03:48;;;;;;;2.03;1.57;;;;;;;29.38;33.42;101888.09;4957515;28;98141;-48
2022/08/12 09:06:14;;;;;;;2.03;1.23;;;;;;;29.53;32.75;101882.13;4956614;28;97334;-48
2022/08/12 09:08:43;;;;;;;1.50;1.40;;;;;;;29.68;32.63;101887.47;4957523;28;98562;-48
2022/08/12 09:13:53;;;;;;;1.10;1.10;;;;;;;30.00;32.37;101888.38;4960602;28;97321;-48
2022/08/12 09:16:19;;;;;;;1.07;1.03;;;;;;;30.14;32.13;101890.13;4957755;28;96873;-48
2022/08/12 09:18:45;;;;;;;1.10;1.00;;;;;;;30.26;31.51;101888.16;4956427;28;97364;-48
2022/08/12 09:21:10;;;;;;;1.20;1.10;;;;;;;30.38;31.58;101881.88;4954551;28;98263;-48
2022/08/12 09:23:36;;;;;;;1.40;1.30;;;;;;;30.53;31.37;101873.72;4958389;28;97120;-48
2022/08/12 09:26:02;;;;;;;1.20;1.10;;;;;;;30.72;30.94;101884.25;4961297;28;97193;-48
2022/08/12 09:28:27;;;;;;;1.20;1.10;;;;;;;30.90;31.14;101880.59;4957274;28;97738;-48
2022/08/12 09:30:56;;;;;;;1.40;1.30;;;;;;;31.08;30.54;101878.94;4957815;28;98228;-48
2022/08/12 09:33:29;;;;;;;1.27;1.17;;;;;;;31.27;30.11;101863.84;4963389;28;96722;-48
2022/08/12 09:35:56;;;;;;;2.97;1.10;;;;;;;31.40;30.17;101869.00;4954224;28;96900;-48
2022/08/12 09:38:22;;;;;;;1.40;1.30;;;;;;;31.54;29.98;101863.50;4961694;28;103071;-47
2022/08/12 09:40:48;;;;;;;3.73;1.10;;;;;;;31.63;29.37;101863.41;4954550;28;98537;-48
2022/08/12 09:46:01;;;;;;;1.30;1.17;;;;;;;31.75;28.79;101869.13;4959366;28;97476;-48
2022/08/12 09:48:27;;;;;;;1.00;1.00;;;;;;;31.89;29.24;101861.50;4958428;28;98552;-48
2022/08/12 09:50:53;;;;;;;1.30;1.20;;;;;;;32.01;28.83;101858.69;4959158;28;96864;-48
2022/08/12 09:53:23;;;;;;;1.33;1.23;;;;;;;32.12;28.30;101855.13;4956991;28;97084;-48
2022/08/12 09:55:57;;;;;;;1.33;1.23;;;;;;;32.25;27.83;101848.81;4955920;28;97102;-48
2022/08/12 09:58:28;;;;;;;1.13;1.03;;;;;;;32.38;28.29;101842.50;4957185;28;98653;-47
2022/08/12 10:01:05;;;;;;;1.30;1.20;;;;;;;32.45;25.22;101839.41;4956095;28;97344;-48
2022/08/12 10:03:32;;;;;;;1.93;1.33;;;;;;;32.53;27.16;101847.72;4961237;28;96867;-48
2022/08/12 10:05:59;;;;;;;1.37;1.27;;;;;;;32.61;27.12;101838.94;4958609;28;96754;-48
2022/08/12 10:08:29;;;;;;;1.40;1.23;;;;;;;32.69;26.89;101842.25;4959062;28;97428;-48
2022/08/12 10:13:40;;;;;;;0.80;0.80;;;;;;;32.76;26.95;101835.56;4962144;28;97420;-48
2022/08/12 10:16:15;;;;;;;1.20;1.10;;;;;;;32.77;26.60;101840.63;4956233;28;97141;-49
2022/08/12 10:18:45;;;;;;;3.13;1.00;;;;;;;32.79;26.75;101832.19;4954541;28;98123;-48
2022/08/12 10:21:19;;;;;;;1.33;1.23;;;;;;;32.86;25.76;101828.34;4955769;28;97248;-47
2022/08/12 10:23:46;;;;;;;2.37;1.20;;;;;;;32.91;26.42;101815.06;4954855;28;97075;-48
2022/08/12 10:31:49;;;;;;;2.10;1.00;;;;;;;33.06;26.39;101806.75;4960668;28;101935;-48
2022/08/12 10:34:14;;;;;;;3.13;1.07;;;;;;;33.11;26.38;101802.75;4956425;28;97221;-48
2022/08/12 10:36:41;;;;;;;0.90;0.90;;;;;;;33.14;25.94;101795.03;4959558;28;97006;-47
2022/08/12 10:39:09;;;;;;;1.77;1.10;;;;;;;33.14;25.88;101792.19;4953450;28;97638;-48
2022/08/12 10:44:19;;;;;;;1.10;1.00;;;;;;;33.13;25.15;101793.56;4957305;28;97366;-48
2022/08/12 10:46:45;;;;;;;1.00;0.90;;;;;;;33.18;25.48;101775.31;4955875;28;96811;-48
2022/08/12 10:49:11;;;;;;;1.40;1.30;;;;;;;33.29;24.92;101777.34;4954208;28;97553;-49
2022/08/12 10:51:38;;;;;;;1.17;1.07;;;;;;;33.30;24.47;101780.97;4957015;28;96780;-49
2022/08/12 10:54:03;;;;;;;1.20;1.10;;;;;;;33.21;24.47;101786.22;4956242;28;96844;-50
2022/08/12 10:56:33;;;;;;;1.30;1.20;;;;;;;33.12;24.54;101781.41;4959400;28;97515;-48
2022/08/12 10:58:59;;;;;;;1.50;1.40;;;;;;;33.23;24.67;101777.03;4956728;28;97383;-48
2022/08/12 11:01:24;;;;;;;1.10;1.00;;;;;;;33.34;24.44;101779.06;4958631;28;99131;-49
2022/08/12 11:03:50;;;;;;;1.47;1.20;;;;;;;33.36;24.33;101769.88;4957592;28;96977;-48
2022/08/12 11:06:17;;;;;;;1.30;1.20;;;;;;;33.40;24.15;101770.13;4958246;28;97893;-49
2022/08/12 11:08:44;;;;;;;1.10;1.10;;;;;;;33.50;24.10;101768.56;4957604;28;97788;-48
2022/08/12 11:11:10;;;;;;;0.87;0.87;;;;;;;33.58;24.31;101774.75;4957016;28;97729;-49
2022/08/12 11:13:36;;;;;;;1.17;0.90;;;;;;;33.67;23.92;101775.94;4957320;28;97006;-48
2022/08/12 11:16:05;;;;;;;1.40;1.10;;;;;;;33.71;23.75;101770.44;4958362;28;97152;-49
2022/08/12 11:18:30;;;;;;;0.90;0.90;;;;;;;33.68;23.75;101780.28;4953457;28;97456;-48
2022/08/12 11:20:58;;;;;;;1.10;1.00;;;;;;;33.70;23.74;101771.81;4957059;28;97350;-49
2022/08/12 11:23:24;;;;;;;0.87;0.87;;;;;;;33.68;23.40;101774.56;4960855;28;96957;-48
2022/08/12 11:25:50;;;;;;;1.10;1.00;;;;;;;33.65;23.62;101765.16;4958277;28;98211;-48
2022/08/12 11:28:16;;;;;;;1.77;1.20;;;;;;;33.74;23.61;101777.75;4958566;28;97055;-49
2022/08/12 11:30:43;;;;;;;1.17;1.10;;;;;;;33.88;23.82;101773.53;4959642;28;97538;-48
2022/08/12 11:33:08;;;;;;;1.27;1.17;;;;;;;33.95;23.13;101772.50;4956924;28;97107;-49
2022/08/12 11:35:35;;;;;;;1.10;0.87;;;;;;;33.97;23.02;101761.19;4956234;28;97162;-49
2022/08/12 11:38:01;;;;;;;1.10;1.00;;;;;;;33.96;22.61;101767.53;4958919;28;98230;-49
2022/08/12 11:40:27;;;;;;;1.33;0.97;;;;;;;34.01;22.64;101754.97;4961008;28;97176;-49
2022/08/12 11:42:52;;;;;;;1.10;1.00;;;;;;;34.07;22.52;101765.97;4958383;28;97158;-49
2022/08/12 11:45:18;;;;;;;1.37;0.87;;;;;;;34.07;22.43;101755.28;4960045;28;97373;-49
2022/08/12 11:47:44;;;;;;;1.53;1.00;;;;;;;34.10;22.34;101750.44;4960871;28;97036;-48
2022/08/12 11:50:10;;;;;;;1.10;1.00;;;;;;;34.30;22.37;101745.75;4958084;28;97075;-48
2022/08/12 11:52:35;;;;;;;1.53;1.17;;;;;;;34.52;22.72;101741.19;4956496;28;97811;-47
2022/08/12 11:55:01;;;;;;;1.00;1.00;;;;;;;34.73;22.44;101748.69;4960878;28;96832;-48
2022/08/12 11:57:26;;;;;;;2.30;1.00;;;;;;;34.90;22.08;101746.00;4958407;28;97663;-47
2022/08/12 11:59:51;;;;;;;1.00;0.90;;;;;;;35.03;21.79;101742.38;4957368;28;98824;-47
2022/08/12 12:02:17;;;;;;;1.90;0.70;;;;;;;34.99;21.79;101730.72;4959874;28;97067;-48
2022/08/12 12:04:43;;;;;;;1.23;1.10;;;;;;;35.05;21.98;101736.75;4959367;28;97122;-47
2022/08/12 12:07:08;;;;;;;0.87;0.87;;;;;;;35.25;22.08;101734.84;4962070;28;97860;-48
2022/08/12 12:09:35;;;;;;;1.20;1.10;;;;;;;35.46;21.97;101719.34;4958252;28;97114;-47
2022/08/12 12:12:03;;;;;;;0.90;0.90;;;;;;;35.61;20.72;101723.63;4960114;28;97210;-48
2022/08/12 12:14:28;;;;;;;1.53;1.00;;;;;;;35.58;21.15;101719.97;4952443;28;98463;-47
2022/08/12 12:16:54;;;;;;;1.63;0.87;;;;;;;35.54;20.87;101716.16;4956718;28;97695;-47
2022/08/12 12:19:19;;;;;;;1.10;0.90;;;;;;;35.67;21.17;101715.34;4959037;28;96948;-47
2022/08/12 12:21:45;;;;;;;1.37;1.27;;;;;;;35.85;20.60;101711.16;4959061;28;97821;-48
2022/08/12 12:24:10;;;;;;;1.20;1.10;;;;;;;35.73;20.92;101727.81;4957583;28;97414;-48
2022/08/12 12:26:35;;;;;;;1.53;1.17;;;;;;;35.80;20.78;101708.78;4957389;28;96867;-47
2022/08/12 12:29:00;;;;;;;1.63;0.80;;;;;;;35.99;20.90;101708.22;4955394;28;97631;-48
2022/08/12 12:31:26;;;;;;;2.27;1.07;;;;;;;36.14;20.98;101710.31;4959916;28;97515;-47
2022/08/12 12:33:51;;;;;;;1.93;1.27;;;;;;;36.24;20.41;101712.88;4956156;28;97698;-47
2022/08/12 12:36:17;;;;;;;1.23;1.10;;;;;;;36.25;20.36;101712.22;4956791;28;97127;-47
2022/08/12 12:38:42;;;;;;;1.00;1.00;;;;;;;36.12;19.77;101710.22;4954045;28;98622;-48
2022/08/12 12:41:07;;;;;;;2.30;0.93;;;;;;;36.02;19.85;101706.91;4951000;28;97242;-48
2022/08/12 12:43:33;;;;;;;1.40;0.90;;;;;;;36.04;20.47;101707.00;4955676;28;97115;-48
2022/08/12 12:45:58;;;;;;;3.70;0.87;;;;;;;36.06;19.63;101707.09;4960128;28;97967;-47
2022/08/12 12:48:24;;;;;;;1.13;0.83;;;;;;;35.99;19.50;101711.81;4956389;28;97467;-48
2022/08/12 12:53:37;;;;;;;1.50;0.97;;;;;;;35.67;19.54;101698.16;4957501;28;97017;-47
2022/08/12 12:56:03;;;;;;;1.50;1.03;;;;;;;35.76;20.29;101691.38;4955471;28;98613;-47
2022/08/12 12:58:29;;;;;;;0.77;0.77;;;;;;;35.91;20.17;101688.50;4957911;28;97367;-48
2022/08/12 13:00:58;;;;;;;1.47;0.90;;;;;;;36.04;19.76;101684.81;4959253;28;97211;-48
2022/08/12 13:03:24;;;;;;;0.70;0.70;;;;;;;36.13;19.74;101694.47;4956726;28;97161;-48
2022/08/12 13:05:49;;;;;;;2.27;0.87;;;;;;;36.18;19.38;101690.41;4957592;28;97089;-48
2022/08/12 13:08:23;;;;;;;0.93;0.83;;;;;;;36.18;19.38;101704.75;4958596;28;100716;-48
2022/08/12 13:10:50;;;;;;;1.33;1.10;;;;;;;36.00;19.44;101696.09;4959915;28;96624;-48
2022/08/12 13:13:17;;;;;;;1.87;1.20;;;;;;;36.03;19.65;101689.06;4957353;28;97606;-48
2022/08/12 13:15:43;;;;;;;1.20;1.10;;;;;;;36.07;19.62;101679.91;4958202;28;97325;-47
2022/08/12 13:18:09;;;;;;;1.00;0.90;;;;;;;36.11;19.65;101683.69;4959196;28;97167;-48
2022/08/12 13:20:34;;;;;;;1.03;0.93;;;;;;;36.10;19.67;101672.88;4960246;28;97224;-47